Time;durP1;ratioP1;P1;durP2;ratioP2;P2;SDS_P1;SDS_P2;PMS_P1;PMS_P2;Temp;Humidity;BMP_temperature;BMP_pressure;BME280_temperature;BME280_humidity;BME280_pressure;Samples;Min_cycle;Max_cycle;Signal;HPM_P1;HPM_P2
2021/12/25 00:02:28;;;;;;;0.00;0.00;;;;;20.10;100276.00;;;;5104516;28;20047;-78
2021/12/25 00:05:27;;;;;;;0.43;0.10;;;;;20.00;100288.00;;;;5108927;28;20667;-78
2021/12/25 00:08:00;;;;;;;1.20;1.10;;;;;20.00;100279.00;;;;5091197;28;20142;-78
2021/12/25 00:10:32;;;;;;;11.65;10.65;;;;;20.00;100263.00;;;;5109030;28;20422;-79
2021/12/25 00:13:02;;;;;;;0.38;0.38;;;;;19.90;100289.00;;;;5109453;28;20103;-77
2021/12/25 00:15:32;;;;;;;0.00;0.00;;;;;19.90;100299.00;;;;5108818;28;20403;-78
2021/12/25 00:18:02;;;;;;;0.00;0.00;;;;;19.80;100294.00;;;;5109159;28;20046;-76
2021/12/25 00:20:31;;;;;;;0.00;0.00;;;;;19.80;100301.00;;;;5107600;28;20084;-80
2021/12/25 00:23:04;;;;;;;0.00;0.00;;;;;19.80;100296.00;;;;5104813;28;20135;-78
2021/12/25 00:25:47;;;;;;;0.00;0.00;;;;;19.70;100305.00;;;;5104472;28;20422;-77
2021/12/25 00:36:14;;;;;;;0.00;0.00;;;;;19.60;100316.00;;;;5108270;28;20059;-77
2021/12/25 00:38:44;;;;;;;0.00;0.00;;;;;19.60;100325.00;;;;5107331;28;20549;-76
2021/12/25 00:41:19;;;;;;;1.17;1.15;;;;;19.60;100297.00;;;;5092014;28;20484;-76
2021/12/25 00:43:49;;;;;;;0.00;0.00;;;;;19.60;100303.00;;;;5092334;28;20044;-76
2021/12/25 00:46:21;;;;;;;0.00;0.00;;;;;19.50;100292.00;;;;5092935;28;20051;-77
2021/12/25 00:48:52;;;;;;;0.00;0.00;;;;;19.50;100300.00;;;;5093175;28;20059;-77
2021/12/25 00:51:21;;;;;;;0.00;0.00;;;;;19.50;100315.00;;;;5094563;28;20106;-76
2021/12/25 00:53:51;;;;;;;0.10;0.10;;;;;19.50;100288.00;;;;5110202;28;20056;-78
2021/12/25 00:56:21;;;;;;;;;;;;;19.50;100304.00;;;;5118765;27;20104;-75
2021/12/25 00:58:51;;;;;;;0.00;0.00;;;;;19.40;100311.00;;;;5124174;27;19923;-73
2021/12/25 01:01:20;;;;;;;0.00;0.00;;;;;19.30;100309.00;;;;5128791;27;20092;-75
2021/12/25 01:03:50;;;;;;;0.00;0.00;;;;;19.20;100332.00;;;;5127711;27;20075;-76
2021/12/25 01:06:20;;;;;;;0.00;0.00;;;;;19.20;100309.00;;;;5126169;27;20047;-74
2021/12/25 01:08:50;;;;;;;0.00;0.00;;;;;19.20;100318.00;;;;5127429;27;20063;-75
2021/12/25 01:11:24;;;;;;;;;;;;;19.10;100326.00;;;;5127296;27;20046;-76
2021/12/25 01:14:11;;;;;;;0.00;0.00;;;;;19.10;100326.00;;;;5127505;27;19930;-73
2021/12/25 01:17:15;;;;;;;0.00;0.00;;;;;18.90;100282.00;;;;5126661;27;20340;-74
2021/12/25 01:49:26;;;;;;;0.00;0.00;;;;;18.20;100297.00;;;;5105246;28;20134;-78
2021/12/25 01:51:56;;;;;;;0.00;0.00;;;;;18.20;100281.00;;;;5105757;28;20051;-76
2021/12/25 01:54:25;;;;;;;0.00;0.00;;;;;18.20;100280.00;;;;5106092;28;20079;-77
2021/12/25 01:56:54;;;;;;;0.00;0.00;;;;;18.20;100271.00;;;;5105878;28;20047;-77
2021/12/25 01:59:24;;;;;;;0.00;0.00;;;;;18.30;100297.00;;;;5102493;28;20058;-77
2021/12/25 02:02:09;;;;;;;0.00;0.00;;;;;18.10;100288.00;;;;5091999;28;20094;-75
2021/12/25 02:04:41;;;;;;;0.00;0.00;;;;;18.10;100295.00;;;;5109728;28;20036;-79
2021/12/25 02:07:11;;;;;;;0.00;0.00;;;;;18.10;100262.00;;;;5109481;28;20047;-79
2021/12/25 02:09:41;;;;;;;0.00;0.00;;;;;18.20;100272.00;;;;5095474;27;20055;-76
2021/12/25 02:12:14;;;;;;;0.00;0.00;;;;;18.10;100276.00;;;;5113745;27;20464;-75
2021/12/25 02:14:46;;;;;;;0.00;0.00;;;;;18.20;100269.00;;;;5122909;27;20047;-76
2021/12/25 02:17:35;;;;;;;0.43;0.22;;;;;18.10;100267.00;;;;5126093;27;20058;-76
2021/12/25 02:20:18;;;;;;;0.00;0.00;;;;;18.00;100255.00;;;;5126676;27;20112;-75
2021/12/25 02:22:49;;;;;;;0.00;0.00;;;;;17.90;100267.00;;;;5126609;28;20074;-77
2021/12/25 02:25:33;;;;;;;0.00;0.00;;;;;18.00;100265.00;;;;5111178;28;20158;-75
2021/12/25 02:28:06;;;;;;;0.00;0.00;;;;;18.00;100271.00;;;;5126628;28;20043;-76
2021/12/25 02:30:38;;;;;;;0.00;0.00;;;;;17.80;100286.00;;;;5126365;28;20577;-76
2021/12/25 02:33:09;;;;;;;0.00;0.00;;;;;18.00;100250.00;;;;5109923;28;20416;-76
2021/12/25 02:35:40;;;;;;;0.00;0.00;;;;;17.90;100274.00;;;;5115424;28;20048;-78
2021/12/25 02:38:09;;;;;;;0.00;0.00;;;;;17.80;100260.00;;;;5124696;28;20426;-76
2021/12/25 02:40:39;;;;;;;0.00;0.00;;;;;17.80;100278.00;;;;5125751;28;20051;-74
2021/12/25 02:43:09;;;;;;;0.00;0.00;;;;;17.70;100270.00;;;;5127746;27;20044;-75
2021/12/25 02:45:39;;;;;;;0.00;0.00;;;;;17.70;100286.00;;;;5128223;27;20035;-76
2021/12/25 02:48:11;;;;;;;0.20;0.20;;;;;17.70;100268.00;;;;5127905;27;20047;-76
2021/12/25 02:50:42;;;;;;;0.00;0.00;;;;;17.70;100263.00;;;;5127589;27;20084;-77
2021/12/25 02:53:12;;;;;;;0.00;0.00;;;;;17.70;100272.00;;;;5127458;27;20051;-72
2021/12/25 02:55:44;;;;;;;0.00;0.00;;;;;17.70;100263.00;;;;5114220;27;20319;-75
2021/12/25 02:58:19;;;;;;;0.00;0.00;;;;;17.60;100263.00;;;;5118016;27;20046;-76
2021/12/25 03:01:03;;;;;;;0.00;0.00;;;;;17.60;100249.00;;;;5116232;27;20046;-77
2021/12/25 03:03:35;;;;;;;0.00;0.00;;;;;17.70;100251.00;;;;5120265;27;20190;-77
2021/12/25 03:06:06;;;;;;;1.65;1.20;;;;;17.60;100274.00;;;;5120655;27;20042;-79
2021/12/25 03:08:38;;;;;;;0.00;0.00;;;;;17.60;100265.00;;;;5127928;27;20130;-75
2021/12/25 03:11:08;;;;;;;;;;;;;17.60;100274.00;;;;5129797;27;20043;-78
2021/12/25 03:16:19;;;;;;;0.10;0.10;;;;;17.70;100261.00;;;;5129454;27;20861;-82
2021/12/25 03:18:52;;;;;;;0.00;0.00;;;;;17.60;100269.00;;;;5129453;27;20075;-80
2021/12/25 03:21:22;;;;;;;0.00;0.00;;;;;17.60;100225.00;;;;5130486;27;20429;-78
2021/12/25 03:23:54;;;;;;;0.00;0.00;;;;;17.50;100267.00;;;;5128874;27;20062;-79
2021/12/25 03:26:24;;;;;;;0.20;0.20;;;;;17.40;100272.00;;;;5131876;27;20047;-79
2021/12/25 03:28:54;;;;;;;0.00;0.00;;;;;17.40;100257.00;;;;5131869;27;20440;-75
2021/12/25 03:31:24;;;;;;;0.00;0.00;;;;;17.40;100239.00;;;;5130443;27;20043;-78
2021/12/25 03:33:55;;;;;;;0.10;0.08;;;;;17.40;100257.00;;;;5132089;27;20047;-77
2021/12/25 03:36:24;;;;;;;0.22;0.08;;;;;17.60;100258.00;;;;5131442;27;20064;-82
2021/12/25 03:38:54;;;;;;;0.00;0.00;;;;;17.60;100253.00;;;;5130200;27;20138;-76
2021/12/25 03:41:25;;;;;;;0.00;0.00;;;;;17.60;100258.00;;;;5129968;27;20047;-79
2021/12/25 03:43:54;;;;;;;0.00;0.00;;;;;17.60;100279.00;;;;5129743;27;20429;-76
2021/12/25 03:46:24;;;;;;;0.00;0.00;;;;;17.50;100267.00;;;;5131279;27;20046;-78
2021/12/25 03:59:58;;;;;;;0.00;0.00;;;;;17.10;100252.00;;;;5128691;27;20512;-79
2021/12/25 04:02:35;;;;;;;0.35;0.35;;;;;16.90;100244.00;;;;5128934;27;20047;-77
2021/12/25 04:05:13;;;;;;;0.30;0.30;;;;;16.80;100221.00;;;;5112540;27;20043;-76
2021/12/25 04:10:36;;;;;;;0.00;0.00;;;;;16.70;100226.00;;;;5130705;27;20417;-77
2021/12/25 04:13:09;;;;;;;0.00;0.00;;;;;16.70;100240.00;;;;5129155;27;20051;-77
2021/12/25 04:15:39;;;;;;;0.00;0.00;;;;;16.70;100250.00;;;;5130770;27;20071;-78
2021/12/25 04:18:11;;;;;;;0.00;0.00;;;;;16.60;100230.00;;;;5130054;27;20491;-81
2021/12/25 04:20:41;;;;;;;0.00;0.00;;;;;16.60;100226.00;;;;5128350;27;20057;-75
2021/12/25 04:23:16;;;;;;;0.00;0.00;;;;;16.60;100224.00;;;;5128057;27;20471;-79
2021/12/25 04:25:46;;;;;;;0.52;0.38;;;;;16.60;100216.00;;;;5129301;27;20051;-77
2021/12/25 04:28:30;;;;;;;0.10;0.10;;;;;16.50;100216.00;;;;5129179;27;20066;-79
2021/12/25 04:31:25;;;;;;;0.20;0.20;;;;;16.50;100215.00;;;;5129594;27;20061;-76
2021/12/25 05:02:01;;;;;;;0.00;0.00;;;;;16.20;100194.00;;;;5127855;27;20055;-76
2021/12/25 05:05:03;;;;;;;0.00;0.00;;;;;16.20;100178.00;;;;5128625;27;20492;-77
2021/12/25 05:07:56;;;;;;;0.00;0.00;;;;;16.10;100199.00;;;;5120317;27;20055;-79
2021/12/25 05:10:26;;;;;;;1.65;0.45;;;;;16.10;100167.00;;;;5127501;27;20043;-77
2021/12/25 05:12:55;;;;;;;0.00;0.00;;;;;16.10;100173.00;;;;5127775;27;20085;-75
2021/12/25 05:15:24;;;;;;;0.17;0.17;;;;;16.10;100186.00;;;;5128191;27;20586;-78
2021/12/25 05:17:55;;;;;;;0.00;0.00;;;;;16.10;100198.00;;;;5127721;27;20059;-77
2021/12/25 05:20:25;;;;;;;0.00;0.00;;;;;16.10;100210.00;;;;5127353;27;20085;-78
2021/12/25 05:22:54;;;;;;;0.00;0.00;;;;;16.00;100206.00;;;;5127225;27;20524;-80
2021/12/25 05:25:24;;;;;;;0.22;0.22;;;;;16.10;100191.00;;;;5127285;27;20066;-76
2021/12/25 05:28:00;;;;;;;0.00;0.00;;;;;16.10;100198.00;;;;5126700;27;20055;-77
2021/12/25 05:30:31;;;;;;;0.00;0.00;;;;;15.90;100205.00;;;;5126663;27;20143;-77
2021/12/25 05:33:21;;;;;;;0.00;0.00;;;;;15.90;100206.00;;;;5128275;27;20069;-76
2021/12/25 05:36:26;;;;;;;0.00;0.00;;;;;16.00;100206.00;;;;5125816;27;20452;-76
2021/12/25 05:39:15;;;;;;;0.10;0.10;;;;;15.90;100189.00;;;;5126684;27;20152;-76
2021/12/25 05:41:47;;;;;;;0.00;0.00;;;;;15.90;100200.00;;;;5126678;27;20652;-76
2021/12/25 05:44:23;;;;;;;0.00;0.00;;;;;15.90;100210.00;;;;5126127;27;20051;-76
2021/12/25 05:47:21;;;;;;;0.00;0.00;;;;;15.90;100196.00;;;;5128196;27;20039;-77
2021/12/25 05:49:55;;;;;;;0.00;0.00;;;;;15.90;100197.00;;;;5127778;27;20088;-76
2021/12/25 05:53:05;;;;;;;0.00;0.00;;;;;15.80;100175.00;;;;5064102;28;20060;-77
2021/12/25 05:55:52;;;;;;;0.00;0.00;;;;;15.70;100184.00;;;;5062775;28;20265;-76
2021/12/25 05:58:51;;;;;;;0.00;0.00;;;;;15.70;100172.00;;;;5047656;27;20057;-76
2021/12/25 06:01:44;;;;;;;0.00;0.00;;;;;15.70;100173.00;;;;5107403;27;20054;-76
2021/12/25 06:04:14;;;;;;;0.00;0.00;;;;;15.70;100179.00;;;;5125661;27;20051;-76
2021/12/25 06:06:44;;;;;;;0.00;0.00;;;;;15.70;100173.00;;;;5127670;27;20047;-76
2021/12/25 06:09:14;;;;;;;0.00;0.00;;;;;15.70;100178.00;;;;5127684;27;20043;-76
2021/12/25 06:11:46;;;;;;;0.00;0.00;;;;;15.70;100188.00;;;;5127441;27;20387;-76
2021/12/25 06:14:21;;;;;;;0.00;0.00;;;;;15.60;100178.00;;;;5126157;27;20039;-76
2021/12/25 06:17:12;;;;;;;0.00;0.00;;;;;15.60;100167.00;;;;5126474;27;20043;-76
2021/12/25 06:19:50;;;;;;;0.00;0.00;;;;;15.60;100197.00;;;;5126342;27;20126;-76
2021/12/25 06:22:36;;;;;;;0.00;0.00;;;;;15.50;100189.00;;;;5125836;28;20526;-76
2021/12/25 06:25:19;;;;;;;0.00;0.00;;;;;15.50;100181.00;;;;5109965;28;20059;-76
2021/12/25 06:27:58;;;;;;;0.00;0.00;;;;;15.40;100170.00;;;;5125539;28;20071;-76
2021/12/25 06:30:54;;;;;;;0.00;0.00;;;;;15.40;100155.00;;;;5125352;28;20051;-76
2021/12/25 06:33:40;;;;;;;0.00;0.00;;;;;15.50;100165.00;;;;5125791;28;20403;-76
2021/12/25 06:36:30;;;;;;;0.00;0.00;;;;;15.50;100189.00;;;;5105139;28;20126;-76
2021/12/25 06:39:13;;;;;;;0.30;0.10;;;;;15.40;100165.00;;;;5127620;27;20043;-76
2021/12/25 06:42:05;;;;;;;0.00;0.00;;;;;15.40;100166.00;;;;5127129;27;20043;-76
2021/12/25 06:44:35;;;;;;;0.00;0.00;;;;;15.50;100166.00;;;;5126188;28;20529;-76
2021/12/25 06:47:05;;;;;;;0.47;0.40;;;;;15.40;100186.00;;;;5125273;28;20043;-76
2021/12/25 06:49:37;;;;;;;0.00;0.00;;;;;15.40;100164.00;;;;5124916;28;20086;-76
2021/12/25 06:52:36;;;;;;;0.00;0.00;;;;;15.50;100194.00;;;;5125317;28;20417;-76
2021/12/25 06:55:18;;;;;;;0.00;0.00;;;;;15.30;100167.00;;;;5125574;28;20522;-76
2021/12/25 06:58:11;;;;;;;0.00;0.00;;;;;15.30;100168.00;;;;5125731;28;20059;-76
2021/12/25 07:00:41;;;;;;;0.00;0.00;;;;;15.30;100179.00;;;;5125069;28;20510;-76
2021/12/25 07:03:11;;;;;;;0.00;0.00;;;;;15.30;100185.00;;;;5127411;28;20434;-76
2021/12/25 07:05:58;;;;;;;0.00;0.00;;;;;15.30;100165.00;;;;5126796;28;20639;-76
2021/12/25 07:08:52;;;;;;;0.00;0.00;;;;;15.30;100166.00;;;;5126296;27;20490;-76
2021/12/25 07:11:59;;;;;;;0.00;0.00;;;;;15.20;100193.00;;;;5083532;28;20158;-76
2021/12/25 07:14:58;;;;;;;0.00;0.00;;;;;15.20;100194.00;;;;5069909;28;20087;-77
2021/12/25 07:17:56;;;;;;;0.00;0.00;;;;;15.20;100204.00;;;;5119079;28;20126;-76
2021/12/25 07:21:00;;;;;;;0.00;0.00;;;;;15.10;100203.00;;;;5083300;28;20113;-76
2021/12/25 07:23:45;;;;;;;0.00;0.00;;;;;15.10;100215.00;;;;5120325;28;20051;-76
2021/12/25 07:26:28;;;;;;;0.03;0.03;;;;;15.20;100191.00;;;;5125267;28;20046;-76
2021/12/25 07:29:12;;;;;;;0.00;0.00;;;;;15.20;100183.00;;;;5125393;28;20798;-76
2021/12/25 07:31:42;;;;;;;0.00;0.00;;;;;15.10;100192.00;;;;5126204;28;20035;-76
2021/12/25 07:34:11;;;;;;;0.00;0.00;;;;;15.10;100179.00;;;;5126261;27;20050;-76
2021/12/25 07:36:41;;;;;;;0.00;0.00;;;;;15.10;100188.00;;;;5128951;27;20043;-76
2021/12/25 07:39:11;;;;;;;0.00;0.00;;;;;15.10;100197.00;;;;5129949;27;20051;-76
2021/12/25 07:41:42;;;;;;;0.00;0.00;;;;;15.00;100195.00;;;;5129958;27;20413;-76
2021/12/25 07:44:24;;;;;;;0.00;0.00;;;;;14.90;100189.00;;;;5128002;27;20043;-76
2021/12/25 07:46:59;;;;;;;0.00;0.00;;;;;14.90;100199.00;;;;5129393;27;20126;-76
2021/12/25 07:49:31;;;;;;;0.00;0.00;;;;;14.80;100188.00;;;;5130382;27;20063;-76
2021/12/25 07:52:01;;;;;;;0.00;0.00;;;;;14.90;100214.00;;;;5130186;27;20050;-75
2021/12/25 07:54:31;;;;;;;0.00;0.00;;;;;14.80;100189.00;;;;5129750;27;20518;-76
2021/12/25 07:57:00;;;;;;;0.00;0.00;;;;;14.90;100187.00;;;;5129304;27;20031;-76
2021/12/25 07:59:29;;;;;;;0.00;0.00;;;;;14.80;100186.00;;;;5130153;27;20047;-76
2021/12/25 08:01:59;;;;;;;0.00;0.00;;;;;14.80;100212.00;;;;5129791;27;20035;-76
2021/12/25 08:04:28;;;;;;;0.00;0.00;;;;;14.80;100187.00;;;;5130254;27;20448;-76
2021/12/25 08:06:57;;;;;;;0.00;0.00;;;;;14.70;100183.00;;;;5129780;27;20169;-76
2021/12/25 08:09:31;;;;;;;0.00;0.00;;;;;14.70;100212.00;;;;5129301;27;20043;-76
2021/12/25 08:12:02;;;;;;;0.00;0.00;;;;;14.70;100188.00;;;;5129946;27;20050;-76
2021/12/25 08:14:33;;;;;;;0.00;0.00;;;;;14.80;100181.00;;;;5129698;27;20066;-76
2021/12/25 08:17:05;;;;;;;0.22;0.22;;;;;14.70;100201.00;;;;5129615;27;20078;-75
2021/12/25 08:20:05;;;;;;;0.00;0.00;;;;;14.80;100188.00;;;;5108362;27;20062;-76
2021/12/25 08:22:55;;;;;;;0.00;0.00;;;;;14.70;100182.00;;;;5129382;27;20601;-76
2021/12/25 08:25:45;;;;;;;0.00;0.00;;;;;14.70;100178.00;;;;5128806;27;20043;-76
2021/12/25 08:28:41;;;;;;;0.00;0.00;;;;;14.80;100190.00;;;;5129446;27;20130;-76
2021/12/25 08:31:29;;;;;;;0.00;0.00;;;;;14.80;100172.00;;;;5129050;27;20188;-76
2021/12/25 08:34:17;;;;;;;0.00;0.00;;;;;14.80;100188.00;;;;5128555;27;20054;-76
2021/12/25 08:37:07;;;;;;;0.00;0.00;;;;;14.70;100186.00;;;;5127679;27;20535;-76
2021/12/25 08:39:37;;;;;;;0.00;0.00;;;;;14.80;100188.00;;;;5128945;27;20518;-75
2021/12/25 08:42:07;;;;;;;0.00;0.00;;;;;14.80;100198.00;;;;5129444;27;20790;-76
2021/12/25 08:44:42;;;;;;;0.00;0.00;;;;;14.80;100184.00;;;;5128339;27;20054;-76
2021/12/25 08:47:12;;;;;;;0.00;0.00;;;;;14.90;100153.00;;;;5129267;27;20043;-76
2021/12/25 08:49:42;;;;;;;0.00;0.00;;;;;14.90;100223.00;;;;5128141;27;20050;-75
2021/12/25 08:52:14;;;;;;;0.00;0.00;;;;;14.90;100195.00;;;;5128409;27;20035;-76
2021/12/25 08:54:45;;;;;;;0.00;0.00;;;;;15.00;100204.00;;;;5129337;27;20035;-76
2021/12/25 08:57:16;;;;;;;0.00;0.00;;;;;15.10;100195.00;;;;5128231;27;20035;-76
2021/12/25 08:59:47;;;;;;;0.00;0.00;;;;;15.20;100197.00;;;;5128495;27;20203;-76
2021/12/25 09:02:19;;;;;;;0.00;0.00;;;;;15.30;100214.00;;;;5128561;27;20092;-76
2021/12/25 09:04:51;;;;;;;0.00;0.00;;;;;15.30;100195.00;;;;5128369;27;20045;-76
2021/12/25 09:07:21;;;;;;;0.00;0.00;;;;;15.40;100205.00;;;;5128523;27;20130;-76
2021/12/25 09:09:51;;;;;;;0.00;0.00;;;;;15.50;100214.00;;;;5128838;27;20580;-76
2021/12/25 09:12:25;;;;;;;0.15;0.15;;;;;15.70;100227.00;;;;5128231;27;20043;-75
2021/12/25 09:14:55;;;;;;;;;;;;;15.80;100230.00;;;;5129267;27;20653;-75
2021/12/25 09:17:24;;;;;;;0.03;0.03;;;;;15.90;100233.00;;;;5128220;27;19927;-75
2021/12/25 09:19:53;;;;;;;1.75;0.75;;;;;16.00;100227.00;;;;5128715;27;20047;-76
2021/12/25 09:22:23;;;;;;;0.00;0.00;;;;;16.20;100210.00;;;;5128286;27;20066;-76
2021/12/25 09:24:52;;;;;;;0.03;0.03;;;;;16.30;100228.00;;;;5128823;27;20083;-76
2021/12/25 09:27:22;;;;;;;0.00;0.00;;;;;16.40;100209.00;;;;5128080;27;20035;-76
2021/12/25 09:29:51;;;;;;;0.00;0.00;;;;;16.60;100216.00;;;;5128308;27;20058;-76
2021/12/25 09:32:21;;;;;;;0.70;0.70;;;;;18.00;100193.00;;;;5126242;27;20043;-76
2021/12/25 09:34:51;;;;;;;0.00;0.00;;;;;18.60;100106.00;;;;5127287;27;20130;-76
2021/12/25 09:37:20;;;;;;;0.10;0.10;;;;;21.50;100116.00;;;;5127892;27;20061;-76
2021/12/25 09:39:50;;;;;;;0.00;0.00;;;;;19.90;100220.00;;;;5128404;27;20528;-76
2021/12/25 09:42:22;;;;;;;0.15;0.15;;;;;18.80;100217.00;;;;5127380;27;20451;-76
2021/12/25 09:44:53;;;;;;;0.00;0.00;;;;;20.00;100179.00;;;;5127900;27;20043;-76
2021/12/25 09:47:23;;;;;;;0.22;0.15;;;;;19.40;100164.00;;;;5127853;27;20053;-76
2021/12/25 09:49:54;;;;;;;0.00;0.00;;;;;19.40;100211.00;;;;5126503;27;20460;-76
2021/12/25 09:52:23;;;;;;;0.00;0.00;;;;;18.70;100218.00;;;;5128136;27;20157;-77
2021/12/25 09:54:52;;;;;;;0.10;0.10;;;;;18.50;100223.00;;;;5127829;27;20107;-75
2021/12/25 09:57:22;;;;;;;0.32;0.32;;;;;18.60;100230.00;;;;5127238;27;20058;-76
2021/12/25 09:59:53;;;;;;;0.00;0.00;;;;;18.70;100238.00;;;;5126179;27;20051;-74
2021/12/25 10:02:22;;;;;;;0.00;0.00;;;;;18.80;100223.00;;;;5127306;27;20051;-75
2021/12/25 10:04:56;;;;;;;0.00;0.00;;;;;18.90;100236.00;;;;5127573;27;20840;-77
2021/12/25 10:07:30;;;;;;;0.10;0.10;;;;;19.00;100222.00;;;;5127650;27;20035;-77
2021/12/25 10:10:10;;;;;;;1.88;0.57;;;;;19.20;100227.00;;;;5126908;27;20046;-76
2021/12/25 10:12:45;;;;;;;0.00;0.00;;;;;19.40;100197.00;;;;5127276;27;20082;-77
2021/12/25 10:15:18;;;;;;;0.00;0.00;;;;;19.60;100201.00;;;;5126708;27;20057;-74
2021/12/25 10:17:54;;;;;;;0.00;0.00;;;;;19.80;100219.00;;;;5127179;27;20035;-75
2021/12/25 10:20:27;;;;;;;0.00;0.00;;;;;19.90;100194.00;;;;5127004;27;20074;-75
2021/12/25 10:23:22;;;;;;;0.00;0.00;;;;;22.10;100157.00;;;;5127147;27;20123;-75
2021/12/25 10:25:55;;;;;;;0.00;0.00;;;;;21.30;100218.00;;;;5127003;27;20126;-75
2021/12/25 10:28:40;;;;;;;0.00;0.00;;;;;21.40;100211.00;;;;5127127;27;20534;-75
2021/12/25 10:31:16;;;;;;;0.00;0.00;;;;;23.60;100063.00;;;;5126916;28;20158;-74
2021/12/25 10:33:53;;;;;;;0.20;0.15;;;;;25.30;100135.00;;;;5127491;27;20043;-74
2021/12/25 10:36:35;;;;;;;0.08;0.08;;;;;24.00;100158.00;;;;5127230;28;20039;-75
2021/12/25 10:39:15;;;;;;;0.20;0.20;;;;;22.80;100210.00;;;;5127254;27;20043;-75
2021/12/25 10:41:54;;;;;;;0.00;0.00;;;;;22.50;100211.00;;;;5127572;27;20062;-75
2021/12/25 10:44:26;;;;;;;0.00;0.00;;;;;22.10;100190.00;;;;5126961;27;20043;-75
2021/12/25 10:47:06;;;;;;;0.00;0.00;;;;;22.00;100184.00;;;;5127451;28;20084;-75
2021/12/25 10:50:02;;;;;;;0.08;0.08;;;;;22.20;100205.00;;;;5127152;27;20042;-75
2021/12/25 10:52:44;;;;;;;0.00;0.00;;;;;22.50;100204.00;;;;5127527;27;20080;-75
2021/12/25 10:55:24;;;;;;;0.03;0.03;;;;;22.50;100200.00;;;;5126656;27;20039;-75
2021/12/25 10:57:57;;;;;;;0.10;0.10;;;;;22.50;100189.00;;;;5126509;27;20074;-75
2021/12/25 11:00:34;;;;;;;0.00;0.00;;;;;22.70;100189.00;;;;5126448;27;20039;-75
2021/12/25 11:03:09;;;;;;;0.00;0.00;;;;;23.00;100181.00;;;;5126782;28;20078;-75
2021/12/25 11:05:43;;;;;;;0.00;0.00;;;;;25.20;100064.00;;;;5127300;27;20609;-75
2021/12/25 11:08:22;;;;;;;0.00;0.00;;;;;31.30;99973.00;;;;5127499;28;20529;-76
2021/12/25 11:11:17;;;;;;;0.22;0.13;;;;;33.00;99981.00;;;;5126686;27;20063;-76
2021/12/25 11:13:50;;;;;;;0.00;0.00;;;;;33.60;99968.00;;;;5130646;27;20035;-75
2021/12/25 11:16:27;;;;;;;3.50;0.22;;;;;33.50;99982.00;;;;5130664;27;20513;-75
2021/12/25 11:19:11;;;;;;;0.00;0.00;;;;;34.10;99978.00;;;;5130100;27;20088;-76
2021/12/25 11:21:44;;;;;;;0.00;0.00;;;;;34.40;99974.00;;;;5130105;27;20054;-76
2021/12/25 11:24:26;;;;;;;0.00;0.00;;;;;34.80;99977.00;;;;5130448;27;20054;-76
2021/12/25 11:27:00;;;;;;;0.00;0.00;;;;;35.10;99968.00;;;;5130657;27;20057;-76
2021/12/25 11:29:32;;;;;;;0.47;0.30;;;;;35.30;99971.00;;;;5130237;27;20051;-76
2021/12/25 11:32:03;;;;;;;0.10;0.10;;;;;34.80;99968.00;;;;5130602;27;20043;-76
2021/12/25 11:34:33;;;;;;;0.00;0.00;;;;;34.00;99965.00;;;;5130790;27;20039;-76
2021/12/25 11:37:04;;;;;;;0.00;0.00;;;;;34.20;99988.00;;;;5130477;27;20494;-76
2021/12/25 11:39:34;;;;;;;0.05;0.05;;;;;33.90;99985.00;;;;5129990;27;20421;-75
2021/12/25 11:42:08;;;;;;;0.10;0.10;;;;;33.80;99996.00;;;;5130510;27;20043;-76
2021/12/25 11:44:50;;;;;;;0.08;0.08;;;;;33.20;99998.00;;;;5130075;27;20114;-75
2021/12/25 11:47:37;;;;;;;1.00;0.55;;;;;31.80;99992.00;;;;5129682;27;20035;-75
2021/12/25 11:50:23;;;;;;;0.10;0.10;;;;;30.50;100052.00;;;;5129256;27;20066;-76
2021/12/25 11:53:30;;;;;;;0.00;0.00;;;;;30.30;99992.00;;;;5129623;27;20093;-76
2021/12/25 11:56:25;;;;;;;0.00;0.00;;;;;30.60;100010.00;;;;5129664;27;20046;-75
2021/12/25 11:59:00;;;;;;;0.00;0.00;;;;;30.10;100022.00;;;;5130189;27;20042;-76
2021/12/25 12:01:39;;;;;;;0.05;0.05;;;;;29.70;100080.00;;;;5129513;27;20114;-75
2021/12/25 12:04:12;;;;;;;0.00;0.00;;;;;29.50;100133.00;;;;5129508;27;20497;-75
2021/12/25 12:06:47;;;;;;;0.43;0.20;;;;;29.00;100118.00;;;;5130113;27;20122;-75
2021/12/25 12:09:58;;;;;;;0.20;0.20;;;;;28.40;100140.00;;;;5129202;27;20059;-76
2021/12/25 12:12:47;;;;;;;1.40;0.53;;;;;28.60;100114.00;;;;5129116;27;20578;-75
2021/12/25 12:15:46;;;;;;;1.55;0.63;;;;;29.10;100115.00;;;;5128743;27;20059;-76
2021/12/25 12:18:38;;;;;;;0.00;0.00;;;;;29.80;100128.00;;;;5121530;27;20059;-76
2021/12/25 12:21:39;;;;;;;0.00;0.00;;;;;29.80;100136.00;;;;5129328;27;20043;-76
2021/12/25 12:27:08;;;;;;;0.10;0.10;;;;;29.60;100116.00;;;;5128686;27;20112;-75
2021/12/25 12:29:42;;;;;;;0.05;0.03;;;;;29.30;100114.00;;;;5129383;27;20043;-75
2021/12/25 12:32:23;;;;;;;0.63;0.40;;;;;29.60;100123.00;;;;5129422;27;20721;-74
2021/12/25 12:34:53;;;;;;;;;;;;;29.60;100108.00;;;;5129321;27;20062;-75
2021/12/25 12:37:25;;;;;;;1.47;1.07;;;;;29.40;100115.00;;;;5127764;27;19972;-74
2021/12/25 12:40:05;;;;;;;0.20;0.20;;;;;29.40;100108.00;;;;5129376;27;20288;-75
2021/12/25 12:42:46;;;;;;;0.10;0.10;;;;;29.60;100105.00;;;;5128354;27;20066;-75
2021/12/25 12:45:20;;;;;;;;;;;;;30.10;100095.00;;;;5127671;27;20666;-74
2021/12/25 12:48:14;;;;;;;0.00;0.00;;;;;29.90;100095.00;;;;5128907;27;20382;-74
2021/12/25 12:50:48;;;;;;;0.00;0.00;;;;;30.40;100085.00;;;;5129102;27;20096;-73
2021/12/25 12:53:20;;;;;;;0.00;0.00;;;;;30.00;100087.00;;;;5129418;27;20080;-74
2021/12/25 12:55:52;;;;;;;0.47;0.10;;;;;29.80;100104.00;;;;5128949;27;20051;-74
2021/12/25 12:58:27;;;;;;;0.00;0.00;;;;;30.10;100100.00;;;;5128602;27;20078;-74
2021/12/25 13:01:08;;;;;;;0.03;0.03;;;;;30.50;100076.00;;;;5127329;27;20055;-73
2021/12/25 13:03:39;;;;;;;0.32;0.20;;;;;30.30;100085.00;;;;5128769;27;20059;-73
2021/12/25 13:06:15;;;;;;;0.25;0.25;;;;;30.10;100090.00;;;;5128722;27;20498;-74
2021/12/25 13:08:46;;;;;;;2.92;0.47;;;;;30.40;100077.00;;;;5128823;27;20051;-74
2021/12/25 13:11:25;;;;;;;0.00;0.00;;;;;30.50;100068.00;;;;5128666;27;20093;-73
2021/12/25 13:14:01;;;;;;;0.10;0.10;;;;;30.60;100091.00;;;;5128479;27;20035;-74
2021/12/25 13:16:48;;;;;;;0.00;0.00;;;;;30.60;100079.00;;;;5128648;27;20035;-72
2021/12/25 13:19:20;;;;;;;0.00;0.00;;;;;30.70;100086.00;;;;5128792;27;20039;-73
2021/12/25 13:21:49;;;;;;;0.60;0.30;;;;;30.20;100089.00;;;;5128773;27;20060;-73
2021/12/25 13:24:19;;;;;;;0.50;0.50;;;;;30.40;100078.00;;;;5128439;27;20046;-73
2021/12/25 13:26:51;;;;;;;0.00;0.00;;;;;30.70;100069.00;;;;5128360;27;20043;-75
2021/12/25 13:29:23;;;;;;;0.10;0.10;;;;;30.60;100081.00;;;;5128486;27;20051;-74
2021/12/25 13:31:53;;;;;;;0.13;0.13;;;;;30.80;100073.00;;;;5128139;27;20063;-74
2021/12/25 13:34:23;;;;;;;0.10;0.10;;;;;31.30;100069.00;;;;5128183;27;20043;-74
2021/12/25 13:36:57;;;;;;;0.47;0.40;;;;;31.50;100066.00;;;;5126743;27;20100;-75
2021/12/25 13:39:32;;;;;;;0.00;0.00;;;;;31.20;100056.00;;;;5127689;27;20519;-75
2021/12/25 13:42:13;;;;;;;2.55;0.30;;;;;31.30;100064.00;;;;5126947;27;20057;-75
2021/12/25 13:44:48;;;;;;;2.95;0.55;;;;;31.00;100063.00;;;;5127607;27;20536;-72
2021/12/25 13:47:23;;;;;;;0.00;0.00;;;;;30.90;100047.00;;;;5128444;27;20043;-74
2021/12/25 13:49:55;;;;;;;0.68;0.43;;;;;31.30;100073.00;;;;5128020;27;20498;-74
2021/12/25 13:52:33;;;;;;;0.00;0.00;;;;;31.40;100062.00;;;;5128074;27;20092;-74
2021/12/25 13:55:15;;;;;;;0.35;0.35;;;;;31.20;100065.00;;;;5127496;27;20043;-75
2021/12/25 13:57:50;;;;;;;6.75;2.47;;;;;31.40;100057.00;;;;5128004;27;20039;-74
2021/12/25 14:00:22;;;;;;;1.75;0.75;;;;;31.20;100069.00;;;;5127583;27;20051;-74
2021/12/25 14:02:55;;;;;;;0.30;0.15;;;;;30.80;100053.00;;;;5127369;27;20528;-74
2021/12/25 14:05:27;;;;;;;0.73;0.50;;;;;31.40;100065.00;;;;5127876;27;20046;-74
2021/12/25 14:07:57;;;;;;;0.88;0.60;;;;;31.60;100044.00;;;;5127456;27;20084;-74
2021/12/25 14:10:29;;;;;;;0.00;0.00;;;;;31.60;100054.00;;;;5127399;27;20585;-74
2021/12/25 14:13:01;;;;;;;0.00;0.00;;;;;31.80;100063.00;;;;5127594;27;20041;-75
2021/12/25 14:15:34;;;;;;;0.20;0.15;;;;;32.00;100043.00;;;;5127230;27;20051;-75
2021/12/25 14:18:07;;;;;;;0.35;0.30;;;;;31.80;100039.00;;;;5126235;27;20039;-75
2021/12/25 14:20:40;;;;;;;0.30;0.30;;;;;31.50;100034.00;;;;5127385;27;20460;-75
2021/12/25 14:23:10;;;;;;;8.25;0.20;;;;;31.40;100042.00;;;;5127082;27;20039;-76